createdAt,value
2018-08-23T00:01:38.358Z,40.63
2018-08-23T00:03:42.401Z,44.37
2018-08-23T00:05:53.623Z,37.00
2018-08-23T00:08:08.436Z,37.27
2018-08-23T00:10:12.666Z,38.27
2018-08-23T00:12:16.838Z,38.47
2018-08-23T00:14:20.644Z,40.70
2018-08-23T00:16:41.902Z,44.57
2018-08-23T00:18:46.174Z,40.87
2018-08-23T00:20:50.132Z,40.70
2018-08-23T00:22:53.972Z,43.13
2018-08-23T00:24:57.993Z,42.67
2018-08-23T00:27:02.059Z,44.20
2018-08-23T00:29:38.791Z,45.70
2018-08-23T00:31:42.756Z,43.93
2018-08-23T00:33:47.139Z,48.50
2018-08-23T00:35:51.381Z,43.73
2018-08-23T00:37:55.431Z,40.33
2018-08-23T00:40:03.473Z,37.00
2018-08-23T00:42:09.732Z,39.03
2018-08-23T00:44:13.768Z,42.53
2018-08-23T00:46:18.085Z,47.03
2018-08-23T00:48:22.132Z,38.23
2018-08-23T00:51:00.214Z,39.10
2018-08-23T00:53:04.209Z,41.70
2018-08-23T00:55:19.573Z,42.63
2018-08-23T00:57:23.742Z,42.33
2018-08-23T00:59:27.665Z,41.93
2018-08-23T01:01:32.419Z,47.53
2018-08-23T01:03:36.485Z,46.23
2018-08-23T01:05:40.803Z,43.53
2018-08-23T01:07:44.785Z,44.00
2018-08-23T01:09:48.753Z,48.23
2018-08-23T01:11:53.010Z,38.97
2018-08-23T01:13:56.898Z,38.50
2018-08-23T01:16:01.070Z,41.13
2018-08-23T01:18:17.139Z,41.13
2018-08-23T01:20:21.131Z,43.03
2018-08-23T01:22:25.323Z,38.67
2018-08-23T01:24:31.000Z,39.90
2018-08-23T01:26:36.154Z,41.13
2018-08-23T01:28:40.459Z,42.93
2018-08-23T01:30:45.284Z,42.00
2018-08-23T01:32:49.479Z,42.70
2018-08-23T01:34:53.783Z,46.70
2018-08-23T01:36:57.987Z,46.93
2018-08-23T01:39:06.455Z,46.40
2018-08-23T01:41:13.932Z,41.40
2018-08-23T01:43:18.010Z,42.87
2018-08-23T01:45:22.232Z,45.53
2018-08-23T01:47:26.217Z,47.00
2018-08-23T01:49:30.334Z,43.30
2018-08-23T01:51:34.883Z,40.07
2018-08-23T01:53:39.352Z,43.73
2018-08-23T01:55:43.466Z,45.87
2018-08-23T01:57:47.629Z,40.17
2018-08-23T01:59:51.691Z,42.20
2018-08-23T02:01:55.890Z,44.13
2018-08-23T02:03:59.909Z,44.57
2018-08-23T02:06:04.037Z,41.80
2018-08-23T02:08:08.094Z,41.23
2018-08-23T02:10:12.312Z,48.20
2018-08-23T02:12:16.240Z,55.80
2018-08-23T02:14:20.397Z,48.17
2018-08-23T02:16:24.426Z,50.40
2018-08-23T02:18:28.411Z,47.70
2018-08-23T02:20:32.424Z,52.80
2018-08-23T02:22:36.489Z,56.57
2018-08-23T02:24:40.626Z,47.77
2018-08-23T02:26:44.750Z,43.53
2018-08-23T02:28:49.808Z,43.45
2018-08-23T02:30:55.884Z,49.80
2018-08-23T02:32:59.944Z,44.63
2018-08-23T02:35:05.514Z,43.40
2018-08-23T02:37:11.072Z,49.13
2018-08-23T02:39:15.131Z,47.07
2018-08-23T02:41:19.077Z,48.93
2018-08-23T02:43:23.070Z,43.27
2018-08-23T02:45:36.404Z,48.20
2018-08-23T02:47:40.439Z,49.43
2018-08-23T02:49:44.579Z,55.70
2018-08-23T02:51:52.003Z,55.73
2018-08-23T02:53:56.123Z,52.00
2018-08-23T02:56:06.225Z,55.33
2018-08-23T02:58:10.403Z,57.80
2018-08-23T03:00:14.346Z,58.80
2018-08-23T03:02:18.371Z,49.90
2018-08-23T03:04:24.388Z,47.53
2018-08-23T03:06:34.351Z,47.83
2018-08-23T03:08:44.380Z,41.07
2018-08-23T03:10:48.316Z,45.27
2018-08-23T03:12:52.337Z,45.37
2018-08-23T03:14:56.376Z,46.37
2018-08-23T03:17:19.060Z,47.37
2018-08-23T03:19:23.029Z,52.27
2018-08-23T03:21:26.962Z,52.33
2018-08-23T03:23:31.056Z,48.20
2018-08-23T03:25:34.984Z,61.53
2018-08-23T03:27:39.176Z,51.17
2018-08-23T03:29:43.203Z,55.90
2018-08-23T03:31:47.202Z,57.60
2018-08-23T03:33:51.409Z,56.63
2018-08-23T03:35:55.470Z,59.07
2018-08-23T03:37:59.627Z,59.53
2018-08-23T03:40:03.858Z,56.03
2018-08-23T03:42:07.774Z,57.83
2018-08-23T03:44:22.137Z,49.57
2018-08-23T03:46:26.043Z,51.80
2018-08-23T03:48:30.135Z,47.13
2018-08-23T03:50:38.186Z,52.97
2018-08-23T03:52:46.567Z,53.00
2018-08-23T03:54:59.247Z,54.00
2018-08-23T03:57:19.129Z,56.00
2018-08-23T03:59:22.899Z,59.73
2018-08-23T04:01:26.840Z,61.27
2018-08-23T04:03:31.115Z,55.30
2018-08-23T04:05:35.149Z,55.80
2018-08-23T04:07:40.127Z,53.57
2018-08-23T04:09:44.859Z,54.83
2018-08-23T04:11:48.907Z,67.13
2018-08-23T04:13:52.900Z,61.17
2018-08-23T04:15:56.881Z,57.37
2018-08-23T04:18:07.313Z,60.63
2018-08-23T04:20:11.421Z,52.43
2018-08-23T04:22:15.318Z,52.10
2018-08-23T04:24:19.283Z,56.13
2018-08-23T04:26:23.985Z,48.40
2018-08-23T04:28:28.196Z,53.07
2018-08-23T04:30:32.724Z,45.90
2018-08-23T04:32:42.972Z,49.90
2018-08-23T04:34:46.748Z,60.60
2018-08-23T04:36:50.615Z,59.93
2018-08-23T04:38:59.931Z,56.27
2018-08-23T04:41:05.915Z,58.17
2018-08-23T04:43:09.938Z,56.30
2018-08-23T04:45:19.341Z,58.83
2018-08-23T04:47:23.889Z,60.13
2018-08-23T04:49:28.103Z,57.60
2018-08-23T04:51:32.176Z,62.57
2018-08-23T04:53:36.270Z,61.53
2018-08-23T04:55:40.218Z,62.20
2018-08-23T04:57:44.508Z,62.62
2018-08-23T04:59:48.486Z,57.27
2018-08-23T05:01:52.531Z,62.73
2018-08-23T05:03:56.603Z,49.67
2018-08-23T05:06:00.620Z,58.20
2018-08-23T05:08:04.567Z,57.67
2018-08-23T05:10:08.552Z,54.20
2018-08-23T05:12:12.559Z,53.60
2018-08-23T05:14:16.539Z,53.10
2018-08-23T05:16:20.552Z,59.93
2018-08-23T05:18:24.536Z,57.97
2018-08-23T05:20:28.738Z,62.80
2018-08-23T05:22:32.896Z,56.90
2018-08-23T05:24:36.917Z,62.40
2018-08-23T05:26:41.124Z,61.67
2018-08-23T05:29:16.024Z,62.70
2018-08-23T05:31:20.006Z,63.37
2018-08-23T05:33:24.423Z,68.47
2018-08-23T05:35:29.415Z,64.70
2018-08-23T05:37:33.380Z,64.20
2018-08-23T05:39:48.921Z,66.93
2018-08-23T05:41:53.003Z,67.80
2018-08-23T05:44:15.998Z,59.97
2018-08-23T05:46:20.213Z,62.80
2018-08-23T05:48:32.471Z,61.30
2018-08-23T05:50:36.440Z,68.30
2018-08-23T05:52:40.652Z,61.00
2018-08-23T05:54:44.676Z,65.77
2018-08-23T05:56:48.604Z,64.27
2018-08-23T05:58:54.366Z,63.40
2018-08-23T06:00:58.179Z,64.30
2018-08-23T06:03:02.208Z,65.90
2018-08-23T06:05:06.218Z,65.10
2018-08-23T06:07:10.280Z,62.80
2018-08-23T06:09:16.162Z,73.37
2018-08-23T06:11:20.222Z,63.37
2018-08-23T06:13:24.192Z,82.33
2018-08-23T06:15:28.319Z,81.50
2018-08-23T06:17:32.622Z,85.53
2018-08-23T06:19:36.723Z,75.23
2018-08-23T06:21:40.988Z,74.87
2018-08-23T06:24:03.942Z,74.00
2018-08-23T06:26:07.924Z,69.93
2018-08-23T06:28:20.012Z,68.03
2018-08-23T06:30:23.968Z,73.00
2018-08-23T06:32:28.057Z,70.20
2018-08-23T06:34:33.944Z,72.00
2018-08-23T06:36:42.409Z,74.13
2018-08-23T06:38:53.552Z,71.37
2018-08-23T06:40:58.531Z,75.87
2018-08-23T06:43:04.427Z,75.40
2018-08-23T06:45:08.598Z,70.83
2018-08-23T06:47:15.189Z,67.90
2018-08-23T06:49:19.225Z,73.97
2018-08-23T06:51:23.255Z,68.23
2018-08-23T06:53:33.127Z,65.20
2018-08-23T06:55:37.106Z,65.80
2018-08-23T06:57:44.462Z,69.57
2018-08-23T06:59:48.488Z,65.57
2018-08-23T07:01:52.525Z,67.57
2018-08-23T07:04:01.715Z,69.33
2018-08-23T07:06:05.965Z,69.23
2018-08-23T07:08:10.299Z,63.80
2018-08-23T07:10:14.935Z,64.33
2018-08-23T07:12:20.135Z,67.67
2018-08-23T07:14:24.168Z,66.10
2018-08-23T07:16:28.219Z,64.43
2018-08-23T07:18:32.349Z,58.17
2018-08-23T07:20:36.395Z,61.93
2018-08-23T07:22:40.659Z,54.60
2018-08-23T07:24:46.675Z,58.53
2018-08-23T07:26:50.757Z,55.13
2018-08-23T07:28:54.763Z,56.50
2018-08-23T07:30:58.785Z,48.53
2018-08-23T07:33:02.774Z,48.90
2018-08-23T07:35:12.933Z,46.20
2018-08-23T07:37:18.415Z,42.10
2018-08-23T07:39:22.506Z,50.73
2018-08-23T07:41:26.717Z,43.60
2018-08-23T07:43:30.888Z,44.47
2018-08-23T07:45:35.073Z,40.93
2018-08-23T07:47:40.787Z,46.17
2018-08-23T07:49:44.873Z,43.87
2018-08-23T07:51:48.956Z,47.70
2018-08-23T07:53:53.032Z,48.03
2018-08-23T07:55:57.954Z,42.33
2018-08-23T07:58:02.243Z,43.87
2018-08-23T08:00:39.933Z,51.03
2018-08-23T08:02:43.967Z,43.70
2018-08-23T08:04:47.963Z,41.47
2018-08-23T08:06:51.959Z,38.50
2018-08-23T08:08:57.327Z,34.20
2018-08-23T08:11:02.376Z,43.07
2018-08-23T08:13:06.411Z,36.90
2018-08-23T08:15:11.984Z,33.30
2018-08-23T08:17:20.873Z,36.70
2018-08-23T08:19:24.959Z,28.73
2018-08-23T08:21:29.229Z,37.60
2018-08-23T08:23:33.800Z,35.43
2018-08-23T08:25:38.156Z,34.50
2018-08-23T08:27:42.128Z,38.67
2018-08-23T08:29:46.350Z,33.47
2018-08-23T08:31:50.328Z,35.60
2018-08-23T08:33:58.830Z,39.63
2018-08-23T08:36:03.870Z,33.47
2018-08-23T08:38:08.135Z,33.67
2018-08-23T08:40:15.082Z,32.60
2018-08-23T08:42:23.805Z,38.77
2018-08-23T08:44:27.808Z,36.93
2018-08-23T08:46:31.773Z,31.80
2018-08-23T08:48:36.173Z,32.87
2018-08-23T08:50:45.441Z,33.07
2018-08-23T08:52:49.541Z,38.00
2018-08-23T08:54:53.433Z,34.30
2018-08-23T08:56:57.708Z,30.60
2018-08-23T08:59:01.795Z,29.80
2018-08-23T09:01:06.074Z,30.00
2018-08-23T09:03:10.255Z,31.27
2018-08-23T09:05:14.378Z,30.23
2018-08-23T09:07:18.736Z,28.07
2018-08-23T09:09:39.775Z,30.43
2018-08-23T09:11:43.644Z,26.80
2018-08-23T09:13:48.027Z,31.13
2018-08-23T09:15:51.937Z,35.30
2018-08-23T09:17:56.291Z,29.50
2018-08-23T09:20:04.259Z,28.67
2018-08-23T09:22:13.613Z,36.20
2018-08-23T09:24:26.828Z,32.53
2018-08-23T09:26:36.087Z,30.23
2018-08-23T09:28:40.098Z,29.33
2018-08-23T09:30:44.714Z,26.67
2018-08-23T09:32:48.692Z,27.30
2018-08-23T09:34:57.948Z,25.87
2018-08-23T09:37:01.902Z,26.53
2018-08-23T09:39:09.457Z,27.53
2018-08-23T09:41:13.654Z,29.80
2018-08-23T09:43:17.707Z,28.43
2018-08-23T09:45:22.004Z,34.03
2018-08-23T09:47:26.021Z,38.40
2018-08-23T09:49:29.900Z,30.20
2018-08-23T09:51:34.120Z,35.50
2018-08-23T09:53:38.097Z,42.47
2018-08-23T09:55:42.466Z,41.77
2018-08-23T09:57:47.161Z,36.27
2018-08-23T09:59:56.360Z,37.53
2018-08-23T10:02:05.477Z,42.20
2018-08-23T10:04:14.578Z,43.97
2018-08-23T10:06:23.928Z,43.57
2018-08-23T10:08:32.887Z,45.60
2018-08-23T10:10:42.211Z,45.40
2018-08-23T10:12:51.524Z,54.07
2018-08-23T10:15:00.720Z,47.20
2018-08-23T10:17:09.954Z,56.13
2018-08-23T10:19:19.043Z,48.45
2018-08-23T10:21:28.380Z,44.13
2018-08-23T10:23:32.498Z,50.10
2018-08-23T10:25:44.036Z,45.60
2018-08-23T10:27:47.972Z,44.93
2018-08-23T10:29:52.322Z,51.13
2018-08-23T10:31:56.364Z,45.80
2018-08-23T10:34:00.376Z,42.67
2018-08-23T10:36:04.624Z,42.37
2018-08-23T10:38:08.786Z,43.17
2018-08-23T10:40:12.758Z,44.20
2018-08-23T10:42:17.454Z,42.63
2018-08-23T10:44:21.546Z,44.10
2018-08-23T10:46:25.536Z,39.85
2018-08-23T10:48:29.396Z,41.47
2018-08-23T10:50:33.462Z,41.00
2018-08-23T10:52:37.552Z,39.43
2018-08-23T10:54:41.541Z,43.13
2018-08-23T10:56:45.701Z,39.87
2018-08-23T10:58:49.871Z,35.33
2018-08-23T11:00:54.155Z,34.37
2018-08-23T11:02:58.157Z,41.40
2018-08-23T11:05:02.219Z,32.83
2018-08-23T11:07:06.184Z,39.63
2018-08-23T11:09:15.437Z,36.23
2018-08-23T11:11:24.649Z,36.50
2018-08-23T11:13:33.861Z,33.90
2018-08-23T11:15:37.860Z,34.30
2018-08-23T11:17:47.160Z,32.93
2018-08-23T11:19:56.368Z,30.70
2018-08-23T11:22:00.589Z,33.98
2018-08-23T11:24:04.523Z,26.47
2018-08-23T11:26:08.532Z,25.60
2018-08-23T11:28:18.083Z,30.00
2018-08-23T11:30:22.294Z,29.03
2018-08-23T11:32:26.325Z,37.23
2018-08-23T11:34:30.398Z,31.97
2018-08-23T11:36:34.565Z,29.93
2018-08-23T11:38:38.725Z,23.67
2018-08-23T11:40:42.783Z,26.50
2018-08-23T11:42:46.814Z,24.95
2018-08-23T11:44:50.767Z,25.90
2018-08-23T11:46:55.109Z,32.33
2018-08-23T11:48:59.219Z,20.25
2018-08-23T11:51:03.305Z,23.43
2018-08-23T11:53:07.431Z,27.90
2018-08-23T11:55:11.284Z,21.43
2018-08-23T11:57:15.299Z,26.37
2018-08-23T11:59:19.471Z,24.50
2018-08-23T12:01:23.554Z,26.17
2018-08-23T12:03:27.575Z,23.20
2018-08-23T12:05:31.621Z,24.73
2018-08-23T12:07:35.861Z,24.90
2018-08-23T12:09:39.908Z,25.17
2018-08-23T12:11:44.113Z,26.07
2018-08-23T12:13:49.902Z,28.40
2018-08-23T12:15:54.128Z,28.37
2018-08-23T12:17:58.773Z,20.67
2018-08-23T12:20:02.815Z,23.33
2018-08-23T12:22:06.895Z,24.97
2018-08-23T12:24:10.952Z,26.60
2018-08-23T12:26:15.136Z,26.63
2018-08-23T12:28:24.403Z,29.40
2018-08-23T12:30:28.397Z,25.90
2018-08-23T12:32:32.413Z,28.77
2018-08-23T12:34:37.275Z,27.10
2018-08-23T12:36:46.549Z,32.00
2018-08-23T12:38:55.899Z,29.60
2018-08-23T12:41:05.403Z,27.83
2018-08-23T12:43:12.636Z,30.23
2018-08-23T12:45:16.915Z,27.27
2018-08-23T12:47:20.892Z,26.63
2018-08-23T12:49:24.896Z,27.77
2018-08-23T12:51:28.941Z,23.33
2018-08-23T12:53:32.748Z,34.70
2018-08-23T12:55:36.833Z,35.17
2018-08-23T12:57:40.873Z,32.33
2018-08-23T12:59:44.813Z,23.03
2018-08-23T13:01:48.921Z,29.43
2018-08-23T13:03:53.038Z,27.93
2018-08-23T13:05:57.068Z,25.37
2018-08-23T13:08:01.222Z,29.63
2018-08-23T13:10:05.623Z,33.57
2018-08-23T13:12:09.567Z,30.00
2018-08-23T13:14:13.567Z,33.60
2018-08-23T13:16:17.721Z,27.10
2018-08-23T13:18:21.723Z,31.00
2018-08-23T13:20:26.106Z,29.23
2018-08-23T13:22:35.302Z,30.97
2018-08-23T13:24:44.454Z,28.50
2018-08-23T13:26:48.545Z,34.57
2018-08-23T13:28:52.509Z,29.73
2018-08-23T13:30:56.588Z,30.80
2018-08-23T13:33:00.901Z,27.47
2018-08-23T13:35:05.178Z,26.27
2018-08-23T13:37:09.217Z,27.50
2018-08-23T13:39:13.922Z,25.90
2018-08-23T13:41:18.175Z,26.62
2018-08-23T13:43:22.115Z,26.20
2018-08-23T13:45:26.122Z,25.63
2018-08-23T13:47:30.067Z,23.10
2018-08-23T13:49:34.096Z,25.63
2018-08-23T13:51:38.273Z,21.47
2018-08-23T13:53:42.476Z,20.90
2018-08-23T13:55:46.655Z,20.40
2018-08-23T13:57:50.746Z,19.33
2018-08-23T13:59:54.779Z,22.53
2018-08-23T14:01:58.713Z,19.17
2018-08-23T14:04:02.898Z,30.57
2018-08-23T14:06:07.295Z,19.53
2018-08-23T14:08:11.266Z,21.12
2018-08-23T14:10:15.244Z,18.27
2018-08-23T14:12:19.431Z,15.13
2018-08-23T14:14:23.441Z,18.87
2018-08-23T14:16:27.437Z,14.60
2018-08-23T14:18:32.040Z,20.57
2018-08-23T14:20:36.057Z,16.83
2018-08-23T14:22:40.092Z,15.67
2018-08-23T14:24:44.121Z,16.17
2018-08-23T14:26:48.079Z,12.30
2018-08-23T14:28:52.747Z,12.70
2018-08-23T14:30:56.725Z,10.23
2018-08-23T14:33:00.900Z,13.70
2018-08-23T14:35:05.042Z,11.90
2018-08-23T14:37:09.281Z,13.57
2018-08-23T14:39:13.287Z,10.43
2018-08-23T14:41:17.188Z,10.73
2018-08-23T14:43:21.177Z,10.23
2018-08-23T14:45:30.566Z,8.63
2018-08-23T14:48:41.775Z,12.10
2018-08-23T14:50:49.835Z,12.87
2018-08-23T14:52:53.743Z,9.70
2018-08-23T14:54:57.733Z,12.37
2018-08-23T14:57:06.815Z,11.60
2018-08-23T14:59:10.992Z,10.83
2018-08-23T15:01:14.972Z,10.67
2018-08-23T15:03:19.382Z,9.27
2018-08-23T15:05:23.396Z,10.53
2018-08-23T15:07:27.464Z,9.50
2018-08-23T15:09:31.631Z,13.63
2018-08-23T15:11:35.855Z,11.13
2018-08-23T15:13:39.950Z,8.70
2018-08-23T15:15:47.788Z,11.60
2018-08-23T15:17:52.095Z,7.20
2018-08-23T15:19:56.132Z,10.87
2018-08-23T15:22:00.211Z,10.37
2018-08-23T15:24:04.297Z,9.17
2018-08-23T15:26:08.589Z,11.30
2018-08-23T15:28:12.596Z,13.07
2018-08-23T15:30:16.604Z,17.80
2018-08-23T15:32:20.656Z,15.93
2018-08-23T15:34:24.640Z,21.73
2018-08-23T15:36:28.572Z,9.13
2018-08-23T15:38:32.936Z,12.90
2018-08-23T15:40:36.972Z,18.57
2018-08-23T15:42:40.950Z,11.57
2018-08-23T15:44:44.930Z,11.97
2018-08-23T15:46:49.516Z,9.60
2018-08-23T15:48:53.700Z,8.43
2018-08-23T15:50:57.707Z,13.37
2018-08-23T15:53:01.592Z,13.30
2018-08-23T15:55:05.912Z,13.90
2018-08-23T15:57:10.054Z,8.47
2018-08-23T15:59:14.075Z,11.20
2018-08-23T16:01:18.246Z,10.60
2018-08-23T16:03:22.424Z,7.13
2018-08-23T16:05:26.677Z,11.00
2018-08-23T16:07:30.795Z,6.50
2018-08-23T16:09:34.900Z,10.07
2018-08-23T16:11:39.096Z,5.37
2018-08-23T16:13:43.187Z,7.87
2018-08-23T16:15:47.724Z,6.40
2018-08-23T16:17:57.030Z,10.93
2018-08-23T16:20:06.362Z,8.87
2018-08-23T16:22:19.129Z,7.33
2018-08-23T16:24:23.180Z,7.67
2018-08-23T16:26:32.239Z,8.20
2018-08-23T16:28:36.458Z,7.73
2018-08-23T16:30:41.650Z,7.77
2018-08-23T16:32:46.002Z,5.63
2018-08-23T16:34:50.007Z,4.30
2018-08-23T16:36:54.382Z,7.83
2018-08-23T16:39:06.083Z,4.80
2018-08-23T16:41:10.063Z,4.03
2018-08-23T16:43:14.036Z,9.13
2018-08-23T16:45:18.052Z,6.27
2018-08-23T16:47:21.924Z,6.30
2018-08-23T16:49:26.467Z,8.77
2018-08-23T16:51:30.584Z,5.80
2018-08-23T16:53:34.645Z,9.13
2018-08-23T16:55:38.713Z,4.67
2018-08-23T16:57:42.714Z,3.83
2018-08-23T16:59:46.924Z,13.40
2018-08-23T17:01:50.947Z,5.53
2018-08-23T17:03:56.200Z,5.43
2018-08-23T17:06:00.491Z,5.00
2018-08-23T17:08:04.594Z,4.73
2018-08-23T17:10:08.856Z,5.03
2018-08-23T17:12:12.920Z,6.20
2018-08-23T17:14:17.238Z,4.00
2018-08-23T17:16:26.606Z,3.90
2018-08-23T17:18:30.704Z,5.53
2018-08-23T17:20:34.668Z,4.75
2018-08-23T17:22:38.796Z,4.40
2018-08-23T17:24:42.901Z,4.87
2018-08-23T17:26:46.795Z,7.33
2018-08-23T17:28:50.827Z,4.90
2018-08-23T17:30:54.725Z,6.27
2018-08-23T17:32:58.903Z,4.03
2018-08-23T17:35:02.935Z,7.00
2018-08-23T17:37:07.017Z,4.80
2018-08-23T17:39:11.154Z,3.77
2018-08-23T17:41:15.165Z,4.57
2018-08-23T17:43:19.375Z,8.77
2018-08-23T17:45:23.310Z,6.27
2018-08-23T17:47:27.273Z,4.67
2018-08-23T17:49:31.457Z,5.45
2018-08-23T17:51:35.476Z,8.07
2018-08-23T17:53:39.429Z,3.20
2018-08-23T17:55:43.760Z,12.23
2018-08-23T17:57:47.760Z,3.95
2018-08-23T17:59:51.751Z,13.30
2018-08-23T18:01:55.811Z,7.10
2018-08-23T18:04:00.126Z,3.50
2018-08-23T18:06:04.160Z,4.80
2018-08-23T18:08:08.324Z,3.20
2018-08-23T18:10:12.170Z,3.67
2018-08-23T18:12:16.287Z,5.80
2018-08-23T18:14:20.324Z,3.47
2018-08-23T18:16:29.534Z,5.70
2018-08-23T18:18:33.484Z,2.63
2018-08-23T18:20:37.429Z,3.10
2018-08-23T18:22:41.518Z,3.83
2018-08-23T18:24:45.646Z,9.20
2018-08-23T18:26:49.657Z,4.10
2018-08-23T18:28:53.842Z,4.10
2018-08-23T18:30:57.910Z,6.30
2018-08-23T18:33:02.067Z,4.37
2018-08-23T18:35:06.012Z,3.97
2018-08-23T18:37:10.182Z,3.90
2018-08-23T18:39:14.200Z,4.10
2018-08-23T18:41:18.058Z,3.57
2018-08-23T18:43:22.098Z,2.83
2018-08-23T18:45:26.221Z,3.13
2018-08-23T18:47:30.203Z,2.40
2018-08-23T18:49:34.266Z,4.13
2018-08-23T18:51:38.437Z,2.90
2018-08-23T18:53:42.512Z,2.63
2018-08-23T18:55:46.491Z,2.50
2018-08-23T18:57:50.374Z,4.50
2018-08-23T18:59:54.479Z,2.77
2018-08-23T19:01:58.616Z,2.20
2018-08-23T19:04:03.249Z,4.37
2018-08-23T19:06:07.388Z,2.30
2018-08-23T19:08:11.336Z,2.73
2018-08-23T19:10:15.293Z,2.80
2018-08-23T19:12:19.211Z,4.17
2018-08-23T19:14:23.259Z,3.20
2018-08-23T19:16:32.473Z,3.57
2018-08-23T19:18:36.565Z,4.00
2018-08-23T19:20:40.467Z,4.00
2018-08-23T19:22:44.500Z,5.80
2018-08-23T19:24:48.532Z,3.23
2018-08-23T19:26:52.752Z,9.30
2018-08-23T19:28:56.718Z,4.12
2018-08-23T19:31:00.895Z,3.90
2018-08-23T19:33:04.862Z,4.53
2018-08-23T19:35:08.814Z,2.60
2018-08-23T19:37:13.047Z,5.07
2018-08-23T19:39:17.506Z,8.10
2018-08-23T19:41:21.521Z,2.67
2018-08-23T19:43:25.704Z,4.37
2018-08-23T19:45:33.848Z,3.00
2018-08-23T19:47:43.044Z,3.63
2018-08-23T19:49:54.160Z,2.63
2018-08-23T19:51:58.559Z,3.00
2018-08-23T19:54:02.253Z,8.67
2018-08-23T19:56:05.974Z,4.73
2018-08-23T19:58:09.903Z,3.53
2018-08-23T20:00:14.024Z,3.70
2018-08-23T20:02:18.081Z,5.23
2018-08-23T20:04:22.207Z,4.70
2018-08-23T20:06:26.150Z,2.57
2018-08-23T20:08:30.272Z,3.90
2018-08-23T20:10:34.628Z,5.50
2018-08-23T20:12:38.803Z,3.30
2018-08-23T20:14:42.777Z,4.27
2018-08-23T20:16:46.680Z,3.03
2018-08-23T20:18:50.827Z,4.40
2018-08-23T20:20:54.878Z,3.33
2018-08-23T20:22:58.854Z,6.23
2018-08-23T20:25:02.838Z,5.80
2018-08-23T20:27:06.915Z,3.63
2018-08-23T20:29:10.940Z,3.73
2018-08-23T20:31:15.065Z,3.80
2018-08-23T20:33:19.050Z,11.43
2018-08-23T20:35:23.094Z,5.53
2018-08-23T20:37:27.133Z,4.17
2018-08-23T20:39:30.806Z,8.43
2018-08-23T20:41:34.802Z,4.47
2018-08-23T20:43:39.017Z,5.10
2018-08-23T20:45:43.270Z,8.30
2018-08-23T20:47:47.239Z,5.10
2018-08-23T20:49:51.412Z,3.77
2018-08-23T20:51:55.599Z,4.73
2018-08-23T20:53:59.557Z,3.27
2018-08-23T20:56:03.627Z,4.37
2018-08-23T20:58:07.566Z,4.97
2018-08-23T21:00:11.535Z,3.90
2018-08-23T21:02:16.040Z,4.20
2018-08-23T21:04:20.241Z,2.93
2018-08-23T21:06:24.226Z,4.37
2018-08-23T21:08:28.170Z,7.90
2018-08-23T21:10:32.252Z,15.53
2018-08-23T21:12:36.270Z,4.50
2018-08-23T21:14:40.399Z,5.07
2018-08-23T21:16:44.512Z,9.37
2018-08-23T21:18:48.399Z,3.50
2018-08-23T21:20:52.495Z,3.00
2018-08-23T21:22:56.162Z,3.10
2018-08-23T21:25:00.173Z,4.50
2018-08-23T21:27:04.343Z,5.30
2018-08-23T21:29:08.333Z,3.60
2018-08-23T21:31:12.165Z,6.33
2018-08-23T21:33:16.197Z,7.33
2018-08-23T21:35:20.273Z,3.17
2018-08-23T21:37:24.353Z,2.80
2018-08-23T21:39:28.375Z,2.47
2018-08-23T21:41:32.445Z,4.10
2018-08-23T21:43:36.394Z,3.97
2018-08-23T21:45:40.352Z,2.90
2018-08-23T21:47:44.300Z,2.97
2018-08-23T21:49:48.622Z,2.70
2018-08-23T21:51:52.710Z,3.93
2018-08-23T21:53:56.595Z,3.77
2018-08-23T21:56:00.674Z,4.47
2018-08-23T21:58:05.261Z,2.47
2018-08-23T22:00:08.838Z,2.70
2018-08-23T22:02:18.082Z,2.20
2018-08-23T22:04:22.188Z,5.27
2018-08-23T22:06:26.185Z,2.23
2018-08-23T22:08:30.351Z,1.90
2018-08-23T22:10:34.429Z,5.47
2018-08-23T22:12:38.399Z,5.70
2018-08-23T22:14:42.460Z,2.03
2018-08-23T22:16:46.725Z,3.57
2018-08-23T22:18:50.244Z,2.60
2018-08-23T22:20:53.969Z,5.10
2018-08-23T22:22:58.134Z,2.30
2018-08-23T22:25:02.191Z,1.20
2018-08-23T22:27:06.861Z,4.60
2018-08-23T22:29:10.505Z,1.30
2018-08-23T22:31:14.479Z,1.23
2018-08-23T22:33:18.369Z,1.27
2018-08-23T22:35:22.311Z,1.37
2018-08-23T22:37:26.531Z,16.27
2018-08-23T22:39:30.972Z,2.70
2018-08-23T22:41:35.009Z,1.73
2018-08-23T22:43:39.023Z,1.70
2018-08-23T22:45:42.949Z,1.50
2018-08-23T22:47:46.957Z,6.03
2018-08-23T22:49:50.953Z,2.40
2018-08-23T22:51:54.924Z,2.43
2018-08-23T22:53:59.069Z,3.00
2018-08-23T22:56:03.160Z,1.87
2018-08-23T22:58:07.223Z,1.70
2018-08-23T23:00:11.395Z,2.30
2018-08-23T23:02:20.401Z,1.73
2018-08-23T23:04:28.447Z,2.30
2018-08-23T23:06:32.523Z,3.60
2018-08-23T23:08:36.570Z,3.77
2018-08-23T23:10:40.780Z,2.30
2018-08-23T23:12:44.818Z,2.50
2018-08-23T23:14:48.749Z,2.40
2018-08-23T23:16:54.405Z,4.60
2018-08-23T23:18:58.446Z,4.80
2018-08-23T23:21:02.447Z,4.13
2018-08-23T23:23:06.636Z,3.70
2018-08-23T23:25:10.866Z,4.10
2018-08-23T23:27:15.087Z,4.47
2018-08-23T23:29:19.120Z,4.37
2018-08-23T23:31:23.180Z,6.93
2018-08-23T23:33:27.302Z,4.47
2018-08-23T23:35:31.348Z,4.47
2018-08-23T23:37:35.302Z,5.70
2018-08-23T23:39:39.309Z,3.90
2018-08-23T23:41:43.339Z,5.97
2018-08-23T23:43:47.421Z,5.03
2018-08-23T23:45:51.459Z,4.60
2018-08-23T23:47:55.691Z,8.37
2018-08-23T23:49:59.942Z,7.60
2018-08-23T23:52:03.880Z,4.97
2018-08-23T23:54:09.461Z,5.80
2018-08-23T23:56:13.464Z,4.63
2018-08-23T23:58:17.415Z,5.50
